createdAt,value
2018-07-23T00:00:08.710Z,99.99
2018-07-23T00:01:08.711Z,99.99
2018-07-23T00:02:08.709Z,99.99
2018-07-23T00:03:08.701Z,99.99
2018-07-23T00:04:08.698Z,99.99
2018-07-23T00:05:08.697Z,99.99
2018-07-23T00:06:08.691Z,99.99
2018-07-23T00:07:08.694Z,99.99
2018-07-23T00:08:08.705Z,99.99
2018-07-23T00:09:08.688Z,99.99
2018-07-23T00:10:08.692Z,99.99
2018-07-23T00:11:08.677Z,99.99
2018-07-23T00:12:08.676Z,99.99
2018-07-23T00:13:08.671Z,99.99
2018-07-23T00:14:08.675Z,99.99
2018-07-23T00:15:08.673Z,99.99
2018-07-23T00:16:08.665Z,99.99
2018-07-23T00:17:08.664Z,99.99
2018-07-23T00:18:08.660Z,99.99
2018-07-23T00:19:08.664Z,99.99
2018-07-23T00:20:08.653Z,99.99
2018-07-23T00:21:08.650Z,99.99
2018-07-23T00:22:08.645Z,99.99
2018-07-23T00:23:08.648Z,99.99
2018-07-23T00:24:08.639Z,99.99
2018-07-23T00:25:08.642Z,99.99
2018-07-23T00:26:08.640Z,99.99
2018-07-23T00:27:08.635Z,99.99
2018-07-23T00:28:08.632Z,99.99
2018-07-23T00:29:08.627Z,99.99
2018-07-23T00:30:08.623Z,99.99
2018-07-23T00:31:08.623Z,99.99
2018-07-23T00:32:08.616Z,99.99
2018-07-23T00:33:08.616Z,99.99
2018-07-23T00:34:08.612Z,99.99
2018-07-23T00:35:08.609Z,99.99
2018-07-23T00:36:08.606Z,99.99
2018-07-23T00:37:08.607Z,99.99
2018-07-23T00:38:08.603Z,99.99
2018-07-23T00:39:08.596Z,99.99
2018-07-23T00:40:08.593Z,99.99
2018-07-23T00:41:08.591Z,99.99
2018-07-23T00:42:08.589Z,99.99
2018-07-23T00:43:08.589Z,99.99
2018-07-23T00:44:08.580Z,99.99
2018-07-23T00:45:08.590Z,99.99
2018-07-23T00:46:08.577Z,99.99
2018-07-23T00:47:08.571Z,99.99
2018-07-23T00:48:08.570Z,99.99
2018-07-23T00:49:08.567Z,99.99
2018-07-23T00:50:08.565Z,99.99
2018-07-23T00:51:08.561Z,99.99
2018-07-23T00:52:08.558Z,99.99
2018-07-23T00:53:08.556Z,99.99
2018-07-23T00:54:08.552Z,99.99
2018-07-23T00:55:08.551Z,99.99
2018-07-23T00:56:08.551Z,99.99
2018-07-23T00:57:08.543Z,99.99
2018-07-23T00:58:08.538Z,99.99
2018-07-23T00:59:08.537Z,99.99
2018-07-23T01:00:08.532Z,99.99
2018-07-23T01:01:08.530Z,99.99
2018-07-23T01:02:08.531Z,99.99
2018-07-23T01:03:08.525Z,99.99
2018-07-23T01:04:08.520Z,99.99
2018-07-23T01:05:08.519Z,99.99
2018-07-23T01:06:08.515Z,99.99
2018-07-23T01:07:08.513Z,99.99
2018-07-23T01:08:08.513Z,99.99
2018-07-23T01:09:08.505Z,99.99
2018-07-23T01:10:08.503Z,99.99
2018-07-23T01:11:08.501Z,99.99
2018-07-23T01:12:08.498Z,99.99
2018-07-23T01:13:08.493Z,99.99
2018-07-23T01:14:08.491Z,99.99
2018-07-23T01:15:08.492Z,99.99
2018-07-23T01:16:08.483Z,99.99
2018-07-23T01:17:08.480Z,99.99
2018-07-23T01:18:08.479Z,99.99
2018-07-23T01:19:08.479Z,99.99
2018-07-23T01:20:08.472Z,99.99
2018-07-23T01:21:08.474Z,99.99
2018-07-23T01:22:08.464Z,99.99
2018-07-23T01:23:08.462Z,99.99
2018-07-23T01:24:08.467Z,99.99
2018-07-23T01:25:08.455Z,99.99
2018-07-23T01:26:08.455Z,99.99
2018-07-23T01:27:08.448Z,99.99
2018-07-23T01:28:08.451Z,99.99
2018-07-23T01:29:08.443Z,99.99
2018-07-23T01:30:08.445Z,99.99
2018-07-23T01:31:08.437Z,99.99
2018-07-23T01:32:08.432Z,99.99
2018-07-23T01:33:08.433Z,99.99
2018-07-23T01:34:08.425Z,99.99
2018-07-23T01:35:08.421Z,99.99
2018-07-23T01:36:08.417Z,99.99
2018-07-23T01:37:08.413Z,99.99
2018-07-23T01:38:08.416Z,99.99
2018-07-23T01:39:08.408Z,99.99
2018-07-23T01:40:08.403Z,99.99
2018-07-23T01:41:08.402Z,99.99
2018-07-23T01:42:08.397Z,99.99
2018-07-23T01:43:08.399Z,99.99
2018-07-23T01:44:08.388Z,99.99
2018-07-23T01:45:08.387Z,99.99
2018-07-23T01:46:08.387Z,99.99
2018-07-23T01:47:08.378Z,99.99
2018-07-23T01:48:08.375Z,99.99
2018-07-23T01:49:08.375Z,99.99
2018-07-23T01:50:08.372Z,99.99
2018-07-23T01:51:08.368Z,99.99
2018-07-23T01:52:08.365Z,99.99
2018-07-23T01:53:08.360Z,99.99
2018-07-23T01:54:08.357Z,99.99
2018-07-23T01:55:08.363Z,99.99
2018-07-23T01:56:08.360Z,99.99
2018-07-23T01:57:08.352Z,99.99
2018-07-23T01:58:08.344Z,99.99
2018-07-23T01:59:08.345Z,99.99
2018-07-23T02:00:08.336Z,99.99
2018-07-23T02:01:08.341Z,99.99
2018-07-23T02:02:08.335Z,99.99
2018-07-23T02:03:08.327Z,99.99
2018-07-23T02:04:08.323Z,99.99
2018-07-23T02:05:08.320Z,99.99
2018-07-23T02:06:08.321Z,99.99
2018-07-23T02:07:08.320Z,99.99
2018-07-23T02:08:08.316Z,99.99
2018-07-23T02:09:08.313Z,99.99
2018-07-23T02:10:08.309Z,99.99
2018-07-23T02:11:08.305Z,99.99
2018-07-23T02:12:08.297Z,99.99
2018-07-23T02:13:08.292Z,99.99
2018-07-23T02:14:08.292Z,99.99
2018-07-23T02:15:08.294Z,99.99
2018-07-23T02:16:08.286Z,99.99
2018-07-23T02:17:08.286Z,99.99
2018-07-23T02:18:08.301Z,99.99
2018-07-23T02:19:08.281Z,99.99
2018-07-23T02:20:08.272Z,99.99
2018-07-23T02:21:08.266Z,99.99
2018-07-23T02:22:08.271Z,99.99
2018-07-23T02:23:08.264Z,99.99
2018-07-23T02:24:08.259Z,99.99
2018-07-23T02:25:08.257Z,99.99
2018-07-23T02:26:08.253Z,99.99
2018-07-23T02:27:08.256Z,99.99
2018-07-23T02:28:08.245Z,99.99
2018-07-23T02:29:08.241Z,99.99
2018-07-23T02:30:08.242Z,99.99
2018-07-23T02:31:08.242Z,99.99
2018-07-23T02:32:08.238Z,99.99
2018-07-23T02:33:08.228Z,99.99
2018-07-23T02:34:08.278Z,99.99
2018-07-23T02:35:08.225Z,99.99
2018-07-23T02:36:08.221Z,99.99
2018-07-23T02:37:08.214Z,99.99
2018-07-23T02:38:08.214Z,99.99
2018-07-23T02:39:08.214Z,99.99
2018-07-23T02:40:08.205Z,99.99
2018-07-23T02:41:08.201Z,99.99
2018-07-23T02:42:08.202Z,99.99
2018-07-23T02:43:08.196Z,99.99
2018-07-23T02:44:08.198Z,99.99
2018-07-23T02:45:08.187Z,99.99
2018-07-23T02:46:08.190Z,99.99
2018-07-23T02:47:08.184Z,99.99
2018-07-23T02:48:08.178Z,99.99
2018-07-23T02:49:08.175Z,99.99
2018-07-23T02:50:08.179Z,99.99
2018-07-23T02:51:08.168Z,99.99
2018-07-23T02:52:08.164Z,99.99
2018-07-23T02:53:08.163Z,99.99
2018-07-23T02:54:08.164Z,99.99
2018-07-23T02:55:08.156Z,99.99
2018-07-23T02:56:08.153Z,99.99
2018-07-23T02:57:08.149Z,99.99
2018-07-23T02:58:08.146Z,99.99
2018-07-23T02:59:08.143Z,99.99
2018-07-23T03:00:08.138Z,99.99
2018-07-23T03:01:08.136Z,99.99
2018-07-23T03:02:08.133Z,99.99
2018-07-23T03:03:08.132Z,99.99
2018-07-23T03:04:08.129Z,99.99
2018-07-23T03:05:08.126Z,99.99
2018-07-23T03:06:08.119Z,99.99
2018-07-23T03:07:08.116Z,99.99
2018-07-23T03:08:08.112Z,99.99
2018-07-23T03:09:08.110Z,99.99
2018-07-23T03:10:08.111Z,99.99
2018-07-23T03:11:08.129Z,99.99
2018-07-23T03:12:08.102Z,99.99
2018-07-23T03:13:08.102Z,99.99
2018-07-23T03:14:08.093Z,99.99
2018-07-23T03:15:08.091Z,99.99
2018-07-23T03:16:08.085Z,99.99
2018-07-23T03:17:08.082Z,99.99
2018-07-23T03:18:08.079Z,99.99
2018-07-23T03:19:08.076Z,99.99
2018-07-23T03:20:08.071Z,99.99
2018-07-23T03:21:08.071Z,99.99
2018-07-23T03:22:08.066Z,99.99
2018-07-23T03:23:08.063Z,99.99
2018-07-23T03:24:08.058Z,99.99
2018-07-23T03:25:08.054Z,99.99
2018-07-23T03:26:08.053Z,99.99
2018-07-23T03:27:08.053Z,99.99
2018-07-23T03:28:08.044Z,99.99
2018-07-23T03:29:08.057Z,99.99
2018-07-23T03:30:08.039Z,99.99
2018-07-23T03:31:08.042Z,99.99
2018-07-23T03:32:08.035Z,99.99
2018-07-23T03:33:08.029Z,99.99
2018-07-23T03:34:08.025Z,99.99
2018-07-23T03:35:08.028Z,99.99
2018-07-23T03:36:08.017Z,99.99
2018-07-23T03:37:08.015Z,99.99
2018-07-23T03:38:08.015Z,99.99
2018-07-23T03:39:08.011Z,99.99
2018-07-23T03:40:08.005Z,99.99
2018-07-23T03:41:08.001Z,99.99
2018-07-23T03:42:07.998Z,99.99
2018-07-23T03:43:07.996Z,99.99
2018-07-23T03:44:07.995Z,99.99
2018-07-23T03:45:07.995Z,99.99
2018-07-23T03:46:07.990Z,99.99
2018-07-23T03:47:07.981Z,99.99
2018-07-23T03:48:07.980Z,99.99
2018-07-23T03:49:07.977Z,99.99
2018-07-23T03:50:07.978Z,99.99
2018-07-23T03:51:07.968Z,99.99
2018-07-23T03:52:07.970Z,99.99
2018-07-23T03:53:07.962Z,99.99
2018-07-23T03:54:07.959Z,99.99
2018-07-23T03:55:07.956Z,99.99
2018-07-23T03:56:07.957Z,99.99
2018-07-23T03:57:07.949Z,99.99
2018-07-23T03:58:07.945Z,99.99
2018-07-23T03:59:07.947Z,99.99
2018-07-23T04:00:07.944Z,99.99
2018-07-23T04:01:07.940Z,99.99
2018-07-23T04:02:07.934Z,99.99
2018-07-23T04:03:07.934Z,99.99
2018-07-23T04:04:07.925Z,99.99
2018-07-23T04:05:07.922Z,99.99
2018-07-23T04:06:07.923Z,99.99
2018-07-23T04:07:07.914Z,99.99
2018-07-23T04:08:07.962Z,99.99
2018-07-23T04:09:07.913Z,99.99
2018-07-23T04:10:07.991Z,99.99
2018-07-23T04:11:07.904Z,99.99
2018-07-23T04:12:07.898Z,99.99
2018-07-23T04:13:07.902Z,99.99
2018-07-23T04:14:07.898Z,99.99
2018-07-23T04:15:07.888Z,99.99
2018-07-23T04:16:07.885Z,99.99
2018-07-23T04:17:07.882Z,99.99
2018-07-23T04:18:07.880Z,99.99
2018-07-23T04:19:07.875Z,99.99
2018-07-23T04:20:07.872Z,99.99
2018-07-23T04:21:07.870Z,99.99
2018-07-23T04:22:07.865Z,99.99
2018-07-23T04:23:07.863Z,99.99
2018-07-23T04:24:07.859Z,99.99
2018-07-23T04:25:07.855Z,99.99
2018-07-23T04:26:07.854Z,99.99
2018-07-23T04:27:07.853Z,99.99
2018-07-23T04:28:07.844Z,99.99
2018-07-23T04:29:07.843Z,99.99
2018-07-23T04:30:07.837Z,99.99
2018-07-23T04:31:07.838Z,99.99
2018-07-23T04:32:07.831Z,99.99
2018-07-23T04:33:07.828Z,99.99
2018-07-23T04:34:07.825Z,99.99
2018-07-23T04:35:07.827Z,99.99
2018-07-23T04:36:07.817Z,99.99
2018-07-23T04:37:07.814Z,99.99
2018-07-23T04:38:07.811Z,99.99
2018-07-23T04:39:07.810Z,99.99
2018-07-23T04:40:07.808Z,99.99
2018-07-23T04:41:07.807Z,99.99
2018-07-23T04:42:07.802Z,99.99
2018-07-23T04:43:07.795Z,99.99
2018-07-23T04:44:07.790Z,99.99
2018-07-23T04:45:07.792Z,99.99
2018-07-23T04:46:07.783Z,99.99
2018-07-23T04:47:07.785Z,99.99
2018-07-23T04:48:07.777Z,99.99
2018-07-23T04:49:07.778Z,99.99
2018-07-23T04:50:07.770Z,99.99
2018-07-23T04:51:07.774Z,99.99
2018-07-23T04:52:07.763Z,99.99
2018-07-23T04:53:07.760Z,99.99
2018-07-23T04:54:07.757Z,99.99
2018-07-23T04:55:07.777Z,99.99
2018-07-23T04:56:07.750Z,99.99
2018-07-23T04:57:07.749Z,99.99
2018-07-23T04:58:07.751Z,99.99
2018-07-23T04:59:07.744Z,99.99
2018-07-23T05:00:07.738Z,99.99
2018-07-23T05:01:07.740Z,99.99
2018-07-23T05:02:07.739Z,99.99
2018-07-23T05:03:07.728Z,99.99
2018-07-23T05:04:07.726Z,99.99
2018-07-23T05:05:07.721Z,99.99
2018-07-23T05:06:07.718Z,99.99
2018-07-23T05:07:07.724Z,99.99
2018-07-23T05:08:07.712Z,99.99
2018-07-23T05:09:07.710Z,99.99
2018-07-23T05:10:07.709Z,99.99
2018-07-23T05:11:07.705Z,99.99
2018-07-23T05:12:07.723Z,99.99
2018-07-23T05:13:07.697Z,99.99
2018-07-23T05:14:07.712Z,99.99
2018-07-23T05:15:07.692Z,99.99
2018-07-23T05:16:07.691Z,99.99
2018-07-23T05:17:07.687Z,99.99
2018-07-23T05:18:07.685Z,99.99
2018-07-23T05:19:07.680Z,99.99
2018-07-23T05:20:07.674Z,99.99
2018-07-23T05:21:07.673Z,99.99
2018-07-23T05:22:07.671Z,99.99
2018-07-23T05:23:07.667Z,99.99
2018-07-23T05:24:07.664Z,99.99
2018-07-23T05:25:07.667Z,99.99
2018-07-23T05:26:07.682Z,99.99
2018-07-23T05:27:07.655Z,99.99
2018-07-23T05:28:07.652Z,99.99
2018-07-23T05:29:07.647Z,99.99
2018-07-23T05:30:07.647Z,99.99
2018-07-23T05:31:07.643Z,99.99
2018-07-23T05:32:07.642Z,99.99
2018-07-23T05:33:07.641Z,99.99
2018-07-23T05:34:07.637Z,99.99
2018-07-23T05:35:07.631Z,99.99
2018-07-23T05:36:07.626Z,99.99
2018-07-23T05:37:07.623Z,99.99
2018-07-23T05:38:07.620Z,99.99
2018-07-23T05:39:07.618Z,99.99
2018-07-23T05:40:07.613Z,99.99
2018-07-23T05:41:07.612Z,99.99
2018-07-23T05:42:07.628Z,99.99
2018-07-23T05:43:07.606Z,99.99
2018-07-23T05:44:07.601Z,99.99
2018-07-23T05:45:07.599Z,99.99
2018-07-23T05:46:07.601Z,99.99
2018-07-23T05:47:07.593Z,99.99
2018-07-23T05:48:07.595Z,99.99
2018-07-23T05:49:07.587Z,99.99
2018-07-23T05:50:07.584Z,99.99
2018-07-23T05:51:07.582Z,99.99
2018-07-23T05:52:07.578Z,99.99
2018-07-23T05:53:07.574Z,99.99
2018-07-23T05:54:07.575Z,99.99
2018-07-23T05:55:07.568Z,99.99
2018-07-23T05:56:07.565Z,99.99
2018-07-23T05:57:07.565Z,99.99
2018-07-23T05:58:07.562Z,99.99
2018-07-23T05:59:07.557Z,99.99
2018-07-23T06:00:07.554Z,99.99
2018-07-23T06:01:07.551Z,99.99
2018-07-23T06:02:07.548Z,99.99
2018-07-23T06:03:07.549Z,99.99
2018-07-23T06:04:07.547Z,99.99
2018-07-23T06:05:07.543Z,99.99
2018-07-23T06:06:07.548Z,99.99
2018-07-23T06:07:07.535Z,99.99
2018-07-23T06:08:07.536Z,99.99
2018-07-23T06:09:07.534Z,99.99
2018-07-23T06:10:07.528Z,99.99
2018-07-23T06:11:07.526Z,99.99
2018-07-23T06:12:07.520Z,99.99
2018-07-23T06:13:07.558Z,99.99
2018-07-23T06:14:07.519Z,99.99
2018-07-23T06:15:07.517Z,99.99
2018-07-23T06:16:07.510Z,99.99
2018-07-23T06:17:07.511Z,99.84
2018-07-23T06:18:07.505Z,99.99
2018-07-23T06:19:07.508Z,99.99
2018-07-23T06:20:07.500Z,99.99
2018-07-23T06:21:07.496Z,99.99
2018-07-23T06:22:07.495Z,99.99
2018-07-23T06:23:07.492Z,99.99
2018-07-23T06:24:07.493Z,99.99
2018-07-23T06:25:07.486Z,99.98
2018-07-23T06:26:07.483Z,99.99
2018-07-23T06:27:07.487Z,99.99
2018-07-23T06:28:07.479Z,99.50
2018-07-23T06:29:07.481Z,99.99
2018-07-23T06:30:07.556Z,99.21
2018-07-23T06:31:07.473Z,97.38
2018-07-23T06:32:07.474Z,97.28
2018-07-23T06:33:07.468Z,97.09
2018-07-23T06:34:07.465Z,97.14
2018-07-23T06:35:07.462Z,97.14
2018-07-23T06:36:07.463Z,97.62
2018-07-23T06:37:07.458Z,97.33
2018-07-23T06:38:07.457Z,96.66
2018-07-23T06:39:07.455Z,96.27
2018-07-23T06:40:07.450Z,95.89
2018-07-23T06:41:07.448Z,95.21
2018-07-23T06:42:07.450Z,95.31
2018-07-23T06:43:07.443Z,95.21
2018-07-23T06:44:07.440Z,95.36
2018-07-23T06:45:07.449Z,94.10
2018-07-23T06:46:07.443Z,93.66
2018-07-23T06:47:07.436Z,94.44
2018-07-23T06:48:07.433Z,94.92
2018-07-23T06:49:07.432Z,95.21
2018-07-23T06:50:07.434Z,95.11
2018-07-23T06:51:07.433Z,95.98
2018-07-23T06:52:07.426Z,96.17
2018-07-23T06:53:07.423Z,95.79
2018-07-23T06:54:07.470Z,95.31
2018-07-23T06:55:07.418Z,95.02
2018-07-23T06:56:07.418Z,95.79
2018-07-23T06:57:07.420Z,95.21
2018-07-23T06:58:07.414Z,93.66
2018-07-23T06:59:07.413Z,94.29
2018-07-23T07:00:07.410Z,94.39
2018-07-23T07:01:07.407Z,93.62
2018-07-23T07:02:07.405Z,93.91
2018-07-23T07:03:07.437Z,92.80
2018-07-23T07:04:07.405Z,92.02
2018-07-23T07:05:07.401Z,91.16
2018-07-23T07:06:07.403Z,90.58
2018-07-23T07:07:07.398Z,89.32
2018-07-23T07:08:07.394Z,87.88
2018-07-23T07:09:07.404Z,87.20
2018-07-23T07:10:07.391Z,86.24
2018-07-23T07:11:07.391Z,86.86
2018-07-23T07:12:07.387Z,86.38
2018-07-23T07:13:07.385Z,86.57
2018-07-23T07:14:07.384Z,85.99
2018-07-23T07:15:07.389Z,85.89
2018-07-23T07:16:07.379Z,85.45
2018-07-23T07:17:07.384Z,84.48
2018-07-23T07:18:07.378Z,84.97
2018-07-23T07:19:07.379Z,82.94
2018-07-23T07:20:07.375Z,81.20
2018-07-23T07:21:07.378Z,80.05
2018-07-23T07:22:07.380Z,79.70
2018-07-23T07:23:07.372Z,80.57
2018-07-23T07:24:07.372Z,81.05
2018-07-23T07:25:07.372Z,81.05
2018-07-23T07:26:07.370Z,82.02
2018-07-23T07:27:07.371Z,82.79
2018-07-23T07:28:07.370Z,82.98
2018-07-23T07:29:07.365Z,82.50
2018-07-23T07:30:07.367Z,82.11
2018-07-23T07:31:07.368Z,80.57
2018-07-23T07:32:07.360Z,79.99
2018-07-23T07:33:07.360Z,79.89
2018-07-23T07:34:07.365Z,79.89
2018-07-23T07:35:07.359Z,79.99
2018-07-23T07:36:07.356Z,79.80
2018-07-23T07:37:07.357Z,77.48
2018-07-23T07:38:07.470Z,77.86
2018-07-23T07:39:07.355Z,78.64
2018-07-23T07:40:07.353Z,79.75
2018-07-23T07:41:07.354Z,78.54
2018-07-23T07:42:07.407Z,79.22
2018-07-23T07:43:07.351Z,79.41
2018-07-23T07:44:07.350Z,78.06
2018-07-23T07:45:07.349Z,78.29
2018-07-23T07:46:07.354Z,78.00
2018-07-23T07:47:07.349Z,77.61
2018-07-23T07:48:07.347Z,75.74
2018-07-23T07:49:07.350Z,75.68
2018-07-23T07:50:07.346Z,75.39
2018-07-23T07:51:07.346Z,75.87
2018-07-23T07:52:07.358Z,76.39
2018-07-23T07:53:07.346Z,76.20
2018-07-23T07:54:07.345Z,75.23
2018-07-23T07:55:07.344Z,74.27
2018-07-23T07:56:07.341Z,73.30
2018-07-23T07:57:07.348Z,73.01
2018-07-23T07:58:07.348Z,74.07
2018-07-23T07:59:07.410Z,71.66
2018-07-23T08:00:07.341Z,72.33
2018-07-23T08:01:07.343Z,72.42
2018-07-23T08:02:07.347Z,71.94
2018-07-23T08:03:07.345Z,72.72
2018-07-23T08:04:07.341Z,72.58
2018-07-23T08:05:07.339Z,72.52
2018-07-23T08:06:07.339Z,72.42
2018-07-23T08:07:07.363Z,72.52
2018-07-23T08:08:07.345Z,72.72
2018-07-23T08:09:07.339Z,71.94
2018-07-23T08:10:07.338Z,71.84
2018-07-23T08:11:07.339Z,71.40
2018-07-23T08:12:07.338Z,70.82
2018-07-23T08:13:07.335Z,70.92
2018-07-23T08:14:07.343Z,70.72
2018-07-23T08:15:07.343Z,70.92
2018-07-23T08:16:07.341Z,71.50
2018-07-23T08:17:07.335Z,71.40
2018-07-23T08:18:07.339Z,70.62
2018-07-23T08:19:07.337Z,70.04
2018-07-23T08:20:07.336Z,70.72
2018-07-23T08:21:07.334Z,70.53
2018-07-23T08:22:07.338Z,70.53
2018-07-23T08:23:07.335Z,70.47
2018-07-23T08:24:07.337Z,68.53
2018-07-23T08:25:07.342Z,68.95
2018-07-23T08:26:07.340Z,68.47
2018-07-23T08:27:07.336Z,68.37
2018-07-23T08:28:07.340Z,67.69
2018-07-23T08:29:07.337Z,67.21
2018-07-23T08:30:07.335Z,66.72
2018-07-23T08:31:07.336Z,66.24
2018-07-23T08:32:07.423Z,66.56
2018-07-23T08:33:07.335Z,66.66
2018-07-23T08:34:07.341Z,66.95
2018-07-23T08:35:07.342Z,66.47
2018-07-23T08:36:07.344Z,65.59
2018-07-23T08:37:07.485Z,65.50
2018-07-23T08:38:07.340Z,65.24
2018-07-23T08:39:07.346Z,65.11
2018-07-23T08:40:07.346Z,65.69
2018-07-23T08:41:07.345Z,65.59
2018-07-23T08:42:07.343Z,65.79
2018-07-23T08:43:07.407Z,64.53
2018-07-23T08:44:07.343Z,64.37
2018-07-23T08:45:07.385Z,64.37
2018-07-23T08:46:07.344Z,64.47
2018-07-23T08:47:07.345Z,65.01
2018-07-23T08:48:07.353Z,65.40
2018-07-23T08:49:07.347Z,64.92
2018-07-23T08:50:07.347Z,65.40
2018-07-23T08:51:07.349Z,65.50
2018-07-23T08:52:07.349Z,65.30
2018-07-23T08:53:07.449Z,64.56
2018-07-23T08:54:07.354Z,65.34
2018-07-23T08:55:07.351Z,64.37
2018-07-23T08:56:07.373Z,64.59
2018-07-23T08:57:07.353Z,63.43
2018-07-23T08:58:07.354Z,62.85
2018-07-23T08:59:07.359Z,62.26
2018-07-23T09:00:07.359Z,61.49
2018-07-23T09:01:07.362Z,61.00
2018-07-23T09:02:07.361Z,61.00
2018-07-23T09:03:07.360Z,60.74
2018-07-23T09:04:07.360Z,61.10
2018-07-23T09:05:07.362Z,61.58
2018-07-23T09:06:07.362Z,62.07
2018-07-23T09:07:07.364Z,62.07
2018-07-23T09:08:07.372Z,61.10
2018-07-23T09:09:07.368Z,60.94
2018-07-23T09:10:07.373Z,61.61
2018-07-23T09:11:07.370Z,61.04
2018-07-23T09:12:07.375Z,60.16
2018-07-23T09:13:07.372Z,59.67
2018-07-23T09:14:07.375Z,59.38
2018-07-23T09:15:07.481Z,60.09
2018-07-23T09:16:07.377Z,60.00
2018-07-23T09:17:07.432Z,59.90
2018-07-23T09:18:07.384Z,59.15
2018-07-23T09:19:07.383Z,59.05
2018-07-23T09:20:07.385Z,59.21
2018-07-23T09:21:07.386Z,57.95
2018-07-23T09:22:07.408Z,56.87
2018-07-23T09:23:07.391Z,57.07
2018-07-23T09:24:07.391Z,57.07
2018-07-23T09:25:07.393Z,56.87
2018-07-23T09:26:07.402Z,57.56
2018-07-23T09:27:07.399Z,57.53
2018-07-23T09:28:07.400Z,58.21
2018-07-23T09:29:07.408Z,57.89
2018-07-23T09:30:07.412Z,57.79
2018-07-23T09:31:07.428Z,58.47
2018-07-23T09:32:07.408Z,57.98
2018-07-23T09:33:07.420Z,57.62
2018-07-23T09:34:07.419Z,58.11
2018-07-23T09:35:07.418Z,58.37
2018-07-23T09:36:07.417Z,59.84
2018-07-23T09:37:07.428Z,60.81
2018-07-23T09:38:07.423Z,62.07
2018-07-23T09:39:07.425Z,62.10
2018-07-23T09:40:07.426Z,61.52
2018-07-23T09:41:07.428Z,60.97
2018-07-23T09:42:07.430Z,60.77
2018-07-23T09:43:07.435Z,60.02
2018-07-23T09:44:07.435Z,59.05
2018-07-23T09:45:07.435Z,58.76
2018-07-23T09:46:07.443Z,57.82
2018-07-23T09:47:07.443Z,57.23
2018-07-23T09:48:07.449Z,57.04
2018-07-23T09:49:07.448Z,57.60
2018-07-23T09:50:07.448Z,58.08
2018-07-23T09:51:07.450Z,58.08
2018-07-23T09:52:07.459Z,58.57
2018-07-23T09:53:07.455Z,59.51
2018-07-23T09:54:07.457Z,59.41
2018-07-23T09:55:07.460Z,59.90
2018-07-23T09:56:07.461Z,59.80
2018-07-23T09:57:07.462Z,59.41
2018-07-23T09:58:07.466Z,59.70
2018-07-23T09:59:07.467Z,59.41
2018-07-23T10:00:07.469Z,58.93
2018-07-23T10:01:07.475Z,59.22
2018-07-23T10:02:07.475Z,59.12
2018-07-23T10:03:07.630Z,58.44
2018-07-23T10:04:07.478Z,57.96
2018-07-23T10:05:07.481Z,58.15
2018-07-23T10:06:07.489Z,59.12
2018-07-23T10:07:07.489Z,60.19
2018-07-23T10:08:07.492Z,59.80
2018-07-23T10:09:07.496Z,59.80
2018-07-23T10:10:07.491Z,59.90
2018-07-23T10:11:07.494Z,60.19
2018-07-23T10:12:07.496Z,60.00
2018-07-23T10:13:07.498Z,59.80
2018-07-23T10:14:07.499Z,59.25
2018-07-23T10:15:07.502Z,58.93
2018-07-23T10:16:07.509Z,59.03
2018-07-23T10:17:07.506Z,58.64
2018-07-23T10:18:07.508Z,59.31
2018-07-23T10:19:07.510Z,59.22
2018-07-23T10:20:07.516Z,58.93
2018-07-23T10:21:07.514Z,58.93
2018-07-23T10:22:07.571Z,58.83
2018-07-23T10:23:07.520Z,58.73
2018-07-23T10:24:07.520Z,58.73
2018-07-23T10:25:07.523Z,58.15
2018-07-23T10:26:07.523Z,57.98
2018-07-23T10:27:07.527Z,57.96
2018-07-23T10:28:07.529Z,58.54
2018-07-23T10:29:07.537Z,59.51
2018-07-23T10:30:07.532Z,59.90
2018-07-23T10:31:07.537Z,59.90
2018-07-23T10:32:07.541Z,59.97
2018-07-23T10:33:07.543Z,59.87
2018-07-23T10:34:07.541Z,60.55
2018-07-23T10:35:07.582Z,60.25
2018-07-23T10:36:07.548Z,60.06
2018-07-23T10:37:07.553Z,60.06
2018-07-23T10:38:07.551Z,59.67
2018-07-23T10:39:07.556Z,59.87
2018-07-23T10:40:07.552Z,60.06
2018-07-23T10:41:07.605Z,60.16
2018-07-23T10:42:07.561Z,61.04
2018-07-23T10:43:07.565Z,60.94
2018-07-23T10:44:07.563Z,60.45
2018-07-23T10:45:07.566Z,60.35
2018-07-23T10:46:07.564Z,59.67
2018-07-23T10:47:07.567Z,59.48
2018-07-23T10:48:07.567Z,59.87
2018-07-23T10:49:07.571Z,59.67
2018-07-23T10:50:07.577Z,59.61
2018-07-23T10:51:07.575Z,59.61
2018-07-23T10:52:07.619Z,59.58
2018-07-23T10:53:07.585Z,59.97
2018-07-23T10:54:07.585Z,60.16
2018-07-23T10:55:07.581Z,59.97
2018-07-23T10:56:07.582Z,60.16
2018-07-23T10:57:07.592Z,59.87
2018-07-23T10:58:07.586Z,59.58
2018-07-23T10:59:07.587Z,59.87
2018-07-23T11:00:07.598Z,59.58
2018-07-23T11:01:07.595Z,59.38
2018-07-23T11:02:07.606Z,59.48
2018-07-23T11:03:07.601Z,59.87
2018-07-23T11:04:07.600Z,59.58
2018-07-23T11:05:07.599Z,60.19
2018-07-23T11:06:07.602Z,59.09
2018-07-23T11:07:07.605Z,59.28
2018-07-23T11:08:07.604Z,58.41
2018-07-23T11:09:07.607Z,57.44
2018-07-23T11:10:07.608Z,58.41
2018-07-23T11:11:07.610Z,58.80
2018-07-23T11:12:07.612Z,57.25
2018-07-23T11:13:07.614Z,57.67
2018-07-23T11:14:07.616Z,56.98
2018-07-23T11:15:07.618Z,57.08
2018-07-23T11:16:07.624Z,57.11
2018-07-23T11:17:07.623Z,57.18
2018-07-23T11:18:07.625Z,56.43
2018-07-23T11:19:07.654Z,56.11
2018-07-23T11:20:07.634Z,56.40
2018-07-23T11:21:07.633Z,56.50
2018-07-23T11:22:07.630Z,56.43
2018-07-23T11:23:07.633Z,56.52
2018-07-23T11:24:07.633Z,56.43
2018-07-23T11:25:38.976Z,56.52
2018-07-23T11:26:07.638Z,56.65
2018-07-23T11:27:07.639Z,56.65
2018-07-23T11:28:07.643Z,56.36
2018-07-23T11:29:07.650Z,56.56
2018-07-23T11:30:07.654Z,56.26
2018-07-23T11:31:07.648Z,56.56
2018-07-23T11:32:07.724Z,56.36
2018-07-23T11:33:07.652Z,53.45
2018-07-23T11:34:07.661Z,53.93
2018-07-23T11:35:07.662Z,54.13
2018-07-23T11:36:07.660Z,54.22
2018-07-23T11:37:07.663Z,54.52
2018-07-23T11:38:07.667Z,54.90
2018-07-23T11:39:07.669Z,55.00
2018-07-23T11:40:07.675Z,55.39
2018-07-23T11:41:07.672Z,54.64
2018-07-23T11:42:07.674Z,54.35
2018-07-23T11:43:07.678Z,53.47
2018-07-23T11:44:07.679Z,53.96
2018-07-23T11:45:07.726Z,54.35
2018-07-23T11:46:07.688Z,54.22
2018-07-23T11:47:07.695Z,54.80
2018-07-23T11:48:07.687Z,55.29
2018-07-23T11:49:07.694Z,55.41
2018-07-23T11:50:07.698Z,55.51
2018-07-23T11:51:07.696Z,55.41
2018-07-23T11:52:14.356Z,55.54
2018-07-23T11:53:07.704Z,56.00
2018-07-23T11:54:07.702Z,55.74
2018-07-23T11:55:07.707Z,55.83
2018-07-23T11:56:07.712Z,54.86
2018-07-23T11:57:07.710Z,55.05
2018-07-23T11:58:07.717Z,54.08
2018-07-23T11:59:07.717Z,54.28
2018-07-23T12:00:07.718Z,54.83
2018-07-23T12:01:07.720Z,55.71
2018-07-23T12:02:07.730Z,55.41
2018-07-23T12:03:07.726Z,54.93
2018-07-23T12:04:10.409Z,56.00
2018-07-23T12:05:07.731Z,55.61
2018-07-23T12:06:07.733Z,56.26
2018-07-23T12:07:07.745Z,56.65
2018-07-23T12:08:07.738Z,56.46
2018-07-23T12:09:07.741Z,56.65
2018-07-23T12:10:07.750Z,56.56
2018-07-23T12:11:07.750Z,56.65
2018-07-23T12:12:07.751Z,56.46
2018-07-23T12:13:07.751Z,56.07
2018-07-23T12:14:07.755Z,55.49
2018-07-23T12:15:07.758Z,55.29
2018-07-23T12:16:07.758Z,54.93
2018-07-23T12:17:07.763Z,54.08
2018-07-23T12:18:07.764Z,54.66
2018-07-23T12:19:07.768Z,54.69
2018-07-23T12:20:07.771Z,54.30
2018-07-23T12:21:07.772Z,54.66
2018-07-23T12:22:07.775Z,54.30
2018-07-23T12:23:07.781Z,54.50
2018-07-23T12:24:07.785Z,53.81
2018-07-23T12:25:07.787Z,53.40
2018-07-23T12:26:07.823Z,54.38
2018-07-23T12:27:07.790Z,54.47
2018-07-23T12:28:07.796Z,55.03
2018-07-23T12:29:07.799Z,54.93
2018-07-23T12:30:07.799Z,54.80
2018-07-23T12:31:07.800Z,55.88
2018-07-23T12:32:07.803Z,56.34
2018-07-23T12:33:07.812Z,56.43
2018-07-23T12:34:07.808Z,57.01
2018-07-23T12:35:07.812Z,57.98
2018-07-23T12:36:07.814Z,59.22
2018-07-23T12:37:07.821Z,59.87
2018-07-23T12:38:07.818Z,60.39
2018-07-23T12:39:07.821Z,60.97
2018-07-23T12:40:07.827Z,60.32
2018-07-23T12:41:07.828Z,60.71
2018-07-23T12:42:07.827Z,61.78
2018-07-23T12:43:07.831Z,60.81
2018-07-23T12:44:07.837Z,61.58
2018-07-23T12:45:07.832Z,61.00
2018-07-23T12:46:07.836Z,61.00
2018-07-23T12:47:07.936Z,57.61
2018-07-23T12:48:07.843Z,57.80
2018-07-23T12:49:07.839Z,58.77
2018-07-23T12:50:07.841Z,59.74
2018-07-23T12:51:07.842Z,59.06
2018-07-23T12:52:07.844Z,59.16